METAR Formatted Surface Weather Observation
Issued by NWS

Home | Current Version | Previous Version | Text Only | Print | Product List | Glossary On
Versions: 1 2 3 4
SPZS31 NSTU 190627
SPECI NSTU 190624Z VRB04KT 9SM -SHRA SCT014TCU OVC040 27/26 A2985
RMK TCU ALQDS= is the U.S. government's official web portal to all federal, state and local government web resources and services.